ポルト・アレグレ の空港の天気 - METARとTAF

ポルト・アレグレ国際空港 ( SBPA / POA ) - ブラジル リオグランデ・ド・スル州ポルト・アレグレ
飛行場実況気象(Metar)
観測時間04/21 14:00 BRT (04/21 17:00 UTC)
風向・風速南南東 4m/s
視程10km以上
天気現象
全天の8割程度の雲 雲底高度 460m
全天を覆う雲 雲底高度 760m
気温22℃
湿度73%
気圧1012hPa
METARSBPA 211700Z 16007KT 130V200 9999 BKN015 OVC025 22/17 Q1012
過去の天気等 Google飛行場航空写真 Wunderground天気予報

過去48時間のMETAR

飛行場予報(TAF)
発表時間: 4/21 06:00 BRT (4/21 09:00 UTC)
予報対象時間: 21日9時 BRT ~ 22日9時 BRT
風向・風速南南東 4m/s
視程10km以上
全天の8割程度の雲 雲底高度 910m
21日9時 BRT ~ 21日12時 BRT に 確率 40% で一時的に
視程8000m
天気現象
21日21時 BRT ~ 21日23時 BRT に徐々に
風向・風速南東 4m/s
TAF SBPA 210900Z 2112/2212 16007KT 9999 BKN030 TX24/2118Z TN15/2209Z
PROB40 TEMPO 2112/2115 8000 RA
BECMG 2200/2202 14007KT RMK PDJ